TimeCST,TemperatureF,Dew PointF,Humidity,Sea Level PressureIn,VisibilityMPH,Wind Direction,Wind SpeedMPH,Gust SpeedMPH,PrecipitationIn,Events,Conditions,WindDirDegrees,DateUTC
12:15 AM,50.0,50.0,100,30.15,7.0,SE,3.5,-,N/A,,Clear,130,2013-01-24 06:15:00
12:35 AM,51.8,50.0,94,30.15,7.0,SE,3.5,-,N/A,,Clear,140,2013-01-24 06:35:00
12:55 AM,50.0,50.0,100,30.15,5.0,SE,3.5,-,N/A,,Clear,140,2013-01-24 06:55:00
1:15 AM,50.0,50.0,100,30.15,5.0,SE,3.5,-,N/A,,Clear,130,2013-01-24 07:15:00
1:35 AM,48.2,48.2,100,30.15,2.0,East,3.5,-,N/A,,Clear,90,2013-01-24 07:35:00
1:55 AM,50.0,50.0,100,30.15,4.0,SE,3.5,-,N/A,,Clear,130,2013-01-24 07:55:00
2:15 AM,50.0,48.2,94,30.15,0.5,SE,3.5,-,N/A,Fog,Fog,130,2013-01-24 08:15:00
2:35 AM,50.0,50.0,100,30.15,1.0,SE,4.6,-,N/A,,Mist,130,2013-01-24 08:35:00
2:55 AM,48.2,46.4,93,30.15,0.2,SE,3.5,-,N/A,Fog,Fog,140,2013-01-24 08:55:00
3:15 AM,50.0,48.2,94,30.15,0.2,SSE,4.6,-,N/A,Fog,Fog,160,2013-01-24 09:15:00
3:35 AM,48.2,46.4,93,30.14,0.2,South,5.8,-,N/A,Fog,Fog,170,2013-01-24 09:35:00
3:55 AM,50.0,48.2,94,30.14,0.2,South,4.6,-,N/A,Fog,Fog,190,2013-01-24 09:55:00
4:15 AM,46.4,46.4,100,30.13,0.2,Calm,Calm,-,N/A,Fog,Fog,0,2013-01-24 10:15:00
4:35 AM,44.6,44.6,100,30.13,0.2,Calm,Calm,-,N/A,Fog,Fog,0,2013-01-24 10:35:00
4:55 AM,44.6,44.6,100,30.13,0.2,Calm,Calm,-,N/A,Fog,Fog,0,2013-01-24 10:55:00
5:15 AM,44.6,44.6,100,30.14,0.2,Calm,Calm,-,N/A,Fog,Fog,0,2013-01-24 11:15:00
5:35 AM,44.6,44.6,100,30.14,0.2,Calm,Calm,-,N/A,Fog,Fog,0,2013-01-24 11:35:00
5:55 AM,44.6,42.8,93,30.14,0.2,NNE,3.5,-,N/A,Fog,Fog,30,2013-01-24 11:55:00
6:15 AM,44.6,42.8,93,30.15,0.2,NW,4.6,-,N/A,Fog,Fog,320,2013-01-24 12:15:00
6:35 AM,44.6,44.6,100,30.16,0.2,Calm,Calm,-,N/A,Fog,Fog,0,2013-01-24 12:35:00
6:55 AM,44.6,44.6,100,30.17,0.2,North,3.5,-,N/A,Fog,Fog,10,2013-01-24 12:55:00
7:15 AM,44.6,44.6,100,30.17,0.2,NNE,3.5,-,N/A,Fog,Fog,20,2013-01-24 13:15:00
7:35 AM,44.6,42.8,93,30.17,0.2,Calm,Calm,-,N/A,Fog,Fog,0,2013-01-24 13:35:00
7:55 AM,44.6,42.8,93,30.17,0.2,Calm,Calm,-,N/A,Fog,Fog,0,2013-01-24 13:55:00
8:15 AM,44.6,44.6,100,30.17,0.2,Calm,Calm,-,N/A,Fog,Fog,0,2013-01-24 14:15:00
8:35 AM,46.4,46.4,100,30.17,0.2,Calm,Calm,-,N/A,Fog,Fog,0,2013-01-24 14:35:00
8:55 AM,48.2,48.2,100,30.17,0.2,Calm,Calm,-,N/A,Fog,Fog,0,2013-01-24 14:55:00
9:15 AM,50.0,50.0,100,30.17,1.0,East,4.6,-,N/A,,Overcast,100,2013-01-24 15:15:00
9:35 AM,51.8,51.8,100,30.17,0.8,SSE,3.5,-,N/A,,Overcast,160,2013-01-24 15:35:00
9:55 AM,53.6,53.6,100,30.17,2.0,South,4.6,-,N/A,,Overcast,170,2013-01-24 15:55:00
10:15 AM,55.4,53.6,94,30.19,4.0,Calm,Calm,-,N/A,,Mostly Cloudy,0,2013-01-24 16:15:00
10:35 AM,55.4,55.4,100,30.19,5.0,Calm,Calm,-,N/A,,Overcast,0,2013-01-24 16:35:00
10:55 AM,55.4,55.4,100,30.19,7.0,SE,3.5,-,N/A,,Overcast,130,2013-01-24 16:55:00
11:15 AM,57.2,57.2,100,30.18,7.0,Calm,Calm,-,N/A,,Overcast,0,2013-01-24 17:15:00
11:35 AM,59.0,55.4,88,30.18,7.0,ESE,5.8,-,N/A,,Mostly Cloudy,120,2013-01-24 17:35:00
11:55 AM,60.8,55.4,82,30.16,7.0,ESE,5.8,-,N/A,,Mostly Cloudy,120,2013-01-24 17:55:00
12:15 PM,62.6,59.0,88,30.15,7.0,ESE,6.9,-,N/A,,Scattered Clouds,110,2013-01-24 18:15:00
12:35 PM,64.4,59.0,83,30.14,10.0,ESE,9.2,-,N/A,,Clear,120,2013-01-24 18:35:00
12:55 PM,68.0,57.2,68,30.13,10.0,East,6.9,-,N/A,,Scattered Clouds,90,2013-01-24 18:55:00
1:15 PM,69.8,57.2,64,30.12,10.0,ESE,9.2,-,N/A,,Mostly Cloudy,110,2013-01-24 19:15:00
1:35 PM,69.8,57.2,64,30.11,10.0,South,8.1,-,N/A,,Mostly Cloudy,170,2013-01-24 19:35:00
1:55 PM,69.8,55.4,60,30.10,10.0,South,6.9,-,N/A,,Scattered Clouds,170,2013-01-24 19:55:00
2:15 PM,71.6,55.4,57,30.09,10.0,South,9.2,-,N/A,,Mostly Cloudy,180,2013-01-24 20:15:00
2:35 PM,69.8,55.4,60,30.10,10.0,SSW,8.1,-,N/A,,Scattered Clouds,200,2013-01-24 20:35:00
2:55 PM,68.0,55.4,64,30.10,10.0,SSE,3.5,-,N/A,,Scattered Clouds,160,2013-01-24 20:55:00
3:15 PM,68.0,55.4,64,30.09,10.0,SE,4.6,-,N/A,,Overcast,140,2013-01-24 21:15:00
3:35 PM,68.0,55.4,64,30.09,10.0,SE,6.9,-,N/A,,Overcast,130,2013-01-24 21:35:00
3:55 PM,68.0,55.4,64,30.08,10.0,SSE,6.9,-,N/A,,Mostly Cloudy,150,2013-01-24 21:55:00
4:15 PM,69.8,55.4,60,30.08,10.0,SE,5.8,-,N/A,,Scattered Clouds,140,2013-01-24 22:15:00
4:35 PM,62.6,53.6,72,30.08,7.0,East,13.8,-,N/A,,Mostly Cloudy,90,2013-01-24 22:35:00
4:55 PM,57.2,51.8,82,30.09,10.0,East,11.5,-,N/A,,Mostly Cloudy,80,2013-01-24 22:55:00
5:15 PM,53.6,50.0,88,30.09,4.0,East,10.4,-,N/A,,Mostly Cloudy,90,2013-01-24 23:15:00
5:35 PM,53.6,50.0,88,30.10,4.0,East,10.4,-,N/A,,Overcast,80,2013-01-24 23:35:00
5:55 PM,51.8,50.0,94,30.10,5.0,East,6.9,-,N/A,,Overcast,80,2013-01-24 23:55:00
6:15 PM,51.8,50.0,94,30.10,4.0,East,8.1,-,N/A,,Overcast,80,2013-01-25 00:15:00
6:35 PM,51.8,50.0,94,30.11,4.0,ENE,8.1,-,N/A,,Overcast,70,2013-01-25 00:35:00
6:55 PM,51.8,48.2,88,30.11,3.0,ENE,8.1,-,N/A,,Overcast,60,2013-01-25 00:55:00
7:15 PM,50.0,48.2,94,30.12,2.0,ENE,9.2,-,N/A,,Overcast,70,2013-01-25 01:15:00
7:35 PM,50.0,48.2,94,30.11,1.2,East,9.2,-,N/A,,Overcast,90,2013-01-25 01:35:00
7:55 PM,50.0,48.2,94,30.10,0.8,East,11.5,16.1,N/A,,Overcast,100,2013-01-25 01:55:00
8:15 PM,48.2,46.4,93,30.11,1.0,East,9.2,-,N/A,,Overcast,90,2013-01-25 02:15:00
8:35 PM,48.2,46.4,93,30.11,1.0,East,8.1,-,N/A,,Overcast,100,2013-01-25 02:35:00
8:55 PM,48.2,46.4,93,30.12,0.8,East,5.8,-,N/A,,Overcast,80,2013-01-25 02:55:00
9:15 PM,48.2,46.4,93,30.12,0.5,East,8.1,-,N/A,Fog,Fog,80,2013-01-25 03:15:00
9:35 PM,48.2,46.4,93,30.10,0.5,East,9.2,-,N/A,Fog,Fog,80,2013-01-25 03:35:00
9:55 PM,48.2,46.4,93,30.09,0.8,East,8.1,-,N/A,,Overcast,90,2013-01-25 03:55:00
10:15 PM,46.4,46.4,100,30.09,0.8,ENE,10.4,-,N/A,,Overcast,70,2013-01-25 04:15:00
10:35 PM,46.4,46.4,100,30.10,1.0,East,10.4,-,N/A,,Overcast,90,2013-01-25 04:35:00
10:55 PM,46.4,46.4,100,30.10,1.5,ENE,11.5,-,N/A,,Overcast,70,2013-01-25 04:55:00
11:15 PM,46.4,44.6,93,30.10,2.5,East,8.1,-,N/A,,Overcast,90,2013-01-25 05:15:00
11:35 PM,44.6,44.6,100,30.08,3.0,East,10.4,-,N/A,,Overcast,100,2013-01-25 05:35:00
11:55 PM,44.6,44.6,100,30.07,4.0,East,9.2,-,N/A,,Overcast,100,2013-01-25 05:55:00